sensor_id;sensor_type;location;lat;lon;timestamp;pressure;altitude;pressure_sealevel;temperature;humidity
48874;BME280;66155;46.204;5.220;2023-02-04T00:01:05;100444.88;;;7.06;60.16
48874;BME280;66155;46.204;5.220;2023-02-04T00:06:06;100443.53;;;7.10;59.87
48874;BME280;66155;46.204;5.220;2023-02-04T00:11:07;100443.44;;;7.03;60.08
48874;BME280;66155;46.204;5.220;2023-02-04T00:16:07;100445.47;;;7.22;59.59
48874;BME280;66155;46.204;5.220;2023-02-04T00:21:08;100446.66;;;7.20;59.59
48874;BME280;66155;46.204;5.220;2023-02-04T00:26:08;100436.81;;;7.15;59.90
48874;BME280;66155;46.204;5.220;2023-02-04T00:31:09;100427.88;;;7.18;60.01
48874;BME280;66155;46.204;5.220;2023-02-04T00:36:09;100416.25;;;7.14;60.23
48874;BME280;66155;46.204;5.220;2023-02-04T00:41:09;100406.63;;;7.08;60.47
48874;BME280;66155;46.204;5.220;2023-02-04T00:46:11;100405.09;;;7.13;60.38
48874;BME280;66155;46.204;5.220;2023-02-04T00:51:11;100404.81;;;7.08;60.62
48874;BME280;66155;46.204;5.220;2023-02-04T00:56:12;100403.03;;;7.09;60.50
48874;BME280;66155;46.204;5.220;2023-02-04T01:01:12;100407.13;;;7.18;60.57
48874;BME280;66155;46.204;5.220;2023-02-04T01:06:13;100404.09;;;7.14;60.57
48874;BME280;66155;46.204;5.220;2023-02-04T01:11:13;100401.31;;;7.16;60.46
48874;BME280;66155;46.204;5.220;2023-02-04T01:16:14;100397.22;;;7.21;60.26
48874;BME280;66155;46.204;5.220;2023-02-04T01:21:14;100407.50;;;7.15;60.77
48874;BME280;66155;46.204;5.220;2023-02-04T01:26:16;100405.16;;;7.20;60.46
48874;BME280;66155;46.204;5.220;2023-02-04T01:31:18;100401.56;;;7.21;60.45
48874;BME280;66155;46.204;5.220;2023-02-04T01:36:18;100391.84;;;7.23;60.86
48874;BME280;66155;46.204;5.220;2023-02-04T01:41:20;100386.03;;;7.21;60.41
48874;BME280;66155;46.204;5.220;2023-02-04T01:46:21;100388.25;;;7.24;60.49
48874;BME280;66155;46.204;5.220;2023-02-04T01:51:25;100379.78;;;7.15;60.86
48874;BME280;66155;46.204;5.220;2023-02-04T01:56:29;100379.34;;;7.12;61.32
48874;BME280;66155;46.204;5.220;2023-02-04T02:06:39;100377.31;;;7.07;61.35
48874;BME280;66155;46.204;5.220;2023-02-04T02:11:41;100383.47;;;7.06;61.16
48874;BME280;66155;46.204;5.220;2023-02-04T02:16:42;100365.50;;;7.04;61.67
48874;BME280;66155;46.204;5.220;2023-02-04T02:21:52;100360.84;;;7.00;61.77
48874;BME280;66155;46.204;5.220;2023-02-04T02:26:57;100369.19;;;6.95;61.92
48874;BME280;66155;46.204;5.220;2023-02-04T02:31:59;100354.59;;;6.94;61.86
48874;BME280;66155;46.204;5.220;2023-02-04T02:37:01;100371.78;;;6.95;61.96
48874;BME280;66155;46.204;5.220;2023-02-04T02:42:02;100361.59;;;6.94;62.01
48874;BME280;66155;46.204;5.220;2023-02-04T02:47:02;100358.34;;;7.07;61.96
48874;BME280;66155;46.204;5.220;2023-02-04T02:52:03;100352.81;;;7.10;61.77
48874;BME280;66155;46.204;5.220;2023-02-04T02:57:13;100354.59;;;7.09;62.05
48874;BME280;66155;46.204;5.220;2023-02-04T03:02:17;100350.38;;;7.08;62.55
48874;BME280;66155;46.204;5.220;2023-02-04T03:07:21;100350.88;;;6.97;63.30
48874;BME280;66155;46.204;5.220;2023-02-04T03:12:22;100364.19;;;6.94;63.97
48874;BME280;66155;46.204;5.220;2023-02-04T03:17:22;100349.53;;;6.86;64.42
48874;BME280;66155;46.204;5.220;2023-02-04T03:22:23;100362.94;;;6.75;66.05
48874;BME280;66155;46.204;5.220;2023-02-04T03:27:23;100369.28;;;6.72;67.47
48874;BME280;66155;46.204;5.220;2023-02-04T03:32:24;100366.50;;;6.59;69.15
48874;BME280;66155;46.204;5.220;2023-02-04T03:37:25;100365.72;;;6.58;70.30
48874;BME280;66155;46.204;5.220;2023-02-04T03:42:25;100361.53;;;6.57;70.60
48874;BME280;66155;46.204;5.220;2023-02-04T03:47:25;100369.75;;;6.61;71.13
48874;BME280;66155;46.204;5.220;2023-02-04T03:52:26;100371.50;;;6.60;70.85
48874;BME280;66155;46.204;5.220;2023-02-04T03:57:26;100380.19;;;6.53;72.71
48874;BME280;66155;46.204;5.220;2023-02-04T04:02:27;100379.19;;;6.54;72.33
48874;BME280;66155;46.204;5.220;2023-02-04T04:07:27;100383.75;;;6.37;73.80
48874;BME280;66155;46.204;5.220;2023-02-04T04:12:27;100388.63;;;6.32;74.46
48874;BME280;66155;46.204;5.220;2023-02-04T04:17:28;100379.91;;;6.33;74.65
48874;BME280;66155;46.204;5.220;2023-02-04T04:22:28;100384.72;;;6.36;74.24
48874;BME280;66155;46.204;5.220;2023-02-04T04:27:29;100385.97;;;6.40;74.07
48874;BME280;66155;46.204;5.220;2023-02-04T04:32:29;100386.84;;;6.32;75.30
48874;BME280;66155;46.204;5.220;2023-02-04T04:37:30;100384.25;;;6.32;75.63
48874;BME280;66155;46.204;5.220;2023-02-04T04:42:30;100380.25;;;6.30;76.94
48874;BME280;66155;46.204;5.220;2023-02-04T04:47:31;100371.16;;;6.34;75.76
48874;BME280;66155;46.204;5.220;2023-02-04T04:52:31;100370.97;;;6.35;76.67
48874;BME280;66155;46.204;5.220;2023-02-04T04:57:31;100371.34;;;6.47;76.36
48874;BME280;66155;46.204;5.220;2023-02-04T05:02:32;100368.31;;;6.43;75.75
48874;BME280;66155;46.204;5.220;2023-02-04T05:07:33;100374.47;;;6.42;76.13
48874;BME280;66155;46.204;5.220;2023-02-04T05:12:33;100376.94;;;6.36;75.99
48874;BME280;66155;46.204;5.220;2023-02-04T05:17:34;100369.72;;;6.31;77.39
48874;BME280;66155;46.204;5.220;2023-02-04T05:22:34;100367.31;;;6.30;76.76
48874;BME280;66155;46.204;5.220;2023-02-04T05:27:34;100369.72;;;6.31;76.80
48874;BME280;66155;46.204;5.220;2023-02-04T05:32:35;100359.53;;;6.30;78.07
48874;BME280;66155;46.204;5.220;2023-02-04T05:37:35;100367.59;;;6.35;77.15
48874;BME280;66155;46.204;5.220;2023-02-04T05:42:36;100374.72;;;6.33;77.03
48874;BME280;66155;46.204;5.220;2023-02-04T05:47:36;100387.84;;;6.31;77.68
48874;BME280;66155;46.204;5.220;2023-02-04T05:52:37;100400.34;;;6.42;76.60
48874;BME280;66155;46.204;5.220;2023-02-04T05:57:37;100406.69;;;6.40;77.28
48874;BME280;66155;46.204;5.220;2023-02-04T06:02:38;100423.03;;;6.40;77.44
48874;BME280;66155;46.204;5.220;2023-02-04T06:07:39;100423.09;;;6.32;78.54
48874;BME280;66155;46.204;5.220;2023-02-04T06:12:39;100431.06;;;6.45;78.04
48874;BME280;66155;46.204;5.220;2023-02-04T06:17:40;100427.59;;;6.53;77.29
48874;BME280;66155;46.204;5.220;2023-02-04T06:22:40;100429.22;;;6.54;78.22
48874;BME280;66155;46.204;5.220;2023-02-04T06:27:41;100432.78;;;6.53;77.92
48874;BME280;66155;46.204;5.220;2023-02-04T06:32:42;100447.50;;;6.53;78.38
48874;BME280;66155;46.204;5.220;2023-02-04T06:37:42;100440.81;;;6.58;77.99
48874;BME280;66155;46.204;5.220;2023-02-04T06:42:43;100449.59;;;6.57;78.65
48874;BME280;66155;46.204;5.220;2023-02-04T06:47:44;100452.34;;;6.56;79.72
48874;BME280;66155;46.204;5.220;2023-02-04T06:52:44;100447.06;;;6.49;80.04
48874;BME280;66155;46.204;5.220;2023-02-04T06:57:45;100446.50;;;6.39;80.65
48874;BME280;66155;46.204;5.220;2023-02-04T07:02:46;100452.66;;;6.38;80.51
48874;BME280;66155;46.204;5.220;2023-02-04T07:07:46;100454.16;;;6.32;81.45
48874;BME280;66155;46.204;5.220;2023-02-04T07:12:47;100454.88;;;6.41;80.26
48874;BME280;66155;46.204;5.220;2023-02-04T07:17:47;100467.22;;;6.39;81.03
48874;BME280;66155;46.204;5.220;2023-02-04T07:22:48;100466.41;;;6.38;81.04
48874;BME280;66155;46.204;5.220;2023-02-04T07:27:48;100465.25;;;6.41;81.22
48874;BME280;66155;46.204;5.220;2023-02-04T07:32:48;100466.06;;;6.41;81.30
48874;BME280;66155;46.204;5.220;2023-02-04T07:37:49;100453.31;;;6.55;80.00
48874;BME280;66155;46.204;5.220;2023-02-04T07:42:50;100450.09;;;6.53;80.54
48874;BME280;66155;46.204;5.220;2023-02-04T07:47:50;100443.22;;;6.60;80.54
48874;BME280;66155;46.204;5.220;2023-02-04T07:52:50;100461.47;;;6.66;80.64
48874;BME280;66155;46.204;5.220;2023-02-04T07:57:51;100452.19;;;6.87;79.73
48874;BME280;66155;46.204;5.220;2023-02-04T08:02:51;100453.78;;;7.03;78.95
48874;BME280;66155;46.204;5.220;2023-02-04T08:07:52;100453.34;;;7.14;78.59
48874;BME280;66155;46.204;5.220;2023-02-04T08:12:52;100453.94;;;7.31;78.22
48874;BME280;66155;46.204;5.220;2023-02-04T08:17:53;100447.34;;;7.29;78.42
48874;BME280;66155;46.204;5.220;2023-02-04T08:22:53;100450.13;;;7.27;78.49
48874;BME280;66155;46.204;5.220;2023-02-04T08:27:53;100466.81;;;7.39;78.39
48874;BME280;66155;46.204;5.220;2023-02-04T08:32:54;100454.28;;;7.43;78.05
48874;BME280;66155;46.204;5.220;2023-02-04T08:37:54;100440.78;;;7.48;77.63
48874;BME280;66155;46.204;5.220;2023-02-04T08:42:54;100449.94;;;7.65;77.80
48874;BME280;66155;46.204;5.220;2023-02-04T08:47:55;100449.09;;;7.79;77.30
48874;BME280;66155;46.204;5.220;2023-02-04T08:52:55;100446.31;;;7.81;77.68
48874;BME280;66155;46.204;5.220;2023-02-04T08:57:56;100441.88;;;7.96;76.83
48874;BME280;66155;46.204;5.220;2023-02-04T09:02:58;100441.94;;;8.03;76.33
48874;BME280;66155;46.204;5.220;2023-02-04T09:07:58;100439.44;;;8.16;76.50
48874;BME280;66155;46.204;5.220;2023-02-04T09:12:58;100445.81;;;8.35;76.13
48874;BME280;66155;46.204;5.220;2023-02-04T09:17:59;100443.44;;;8.41;76.06
48874;BME280;66155;46.204;5.220;2023-02-04T09:23:14;100453.41;;;8.37;75.69
48874;BME280;66155;46.204;5.220;2023-02-04T09:28:15;100458.72;;;8.29;75.88
48874;BME280;66155;46.204;5.220;2023-02-04T09:33:16;100467.28;;;8.44;75.26
48874;BME280;66155;46.204;5.220;2023-02-04T09:38:16;100464.56;;;8.59;75.19
48874;BME280;66155;46.204;5.220;2023-02-04T09:43:20;100467.22;;;8.66;74.32
48874;BME280;66155;46.204;5.220;2023-02-04T09:48:22;100472.00;;;8.62;74.80
48874;BME280;66155;46.204;5.220;2023-02-04T09:53:23;100478.22;;;8.68;74.44
48874;BME280;66155;46.204;5.220;2023-02-04T09:58:25;100479.44;;;8.65;74.09
48874;BME280;66155;46.204;5.220;2023-02-04T10:03:28;100468.16;;;8.86;73.88
48874;BME280;66155;46.204;5.220;2023-02-04T10:08:30;100471.03;;;8.98;73.56
48874;BME280;66155;46.204;5.220;2023-02-04T10:13:35;100477.38;;;9.24;73.03
48874;BME280;66155;46.204;5.220;2023-02-04T10:18:36;100471.97;;;9.32;72.84
48874;BME280;66155;46.204;5.220;2023-02-04T10:23:37;100476.50;;;9.10;73.05
48874;BME280;66155;46.204;5.220;2023-02-04T10:28:38;100480.03;;;9.02;72.77
48874;BME280;66155;46.204;5.220;2023-02-04T10:33:41;100482.13;;;9.13;72.58
48874;BME280;66155;46.204;5.220;2023-02-04T10:38:42;100481.13;;;9.21;72.97
48874;BME280;66155;46.204;5.220;2023-02-04T10:43:42;100475.59;;;9.31;72.60
48874;BME280;66155;46.204;5.220;2023-02-04T10:48:45;100475.38;;;9.26;72.45
48874;BME280;66155;46.204;5.220;2023-02-04T10:53:45;100461.38;;;9.33;72.09
48874;BME280;66155;46.204;5.220;2023-02-04T10:59:04;100457.47;;;9.64;71.77
48874;BME280;66155;46.204;5.220;2023-02-04T11:04:09;100458.88;;;9.60;71.34
48874;BME280;66155;46.204;5.220;2023-02-04T11:09:13;100450.72;;;9.70;71.04
48874;BME280;66155;46.204;5.220;2023-02-04T11:14:32;100451.09;;;9.80;70.30
48874;BME280;66155;46.204;5.220;2023-02-04T11:19:37;100434.69;;;9.73;70.69
48874;BME280;66155;46.204;5.220;2023-02-04T11:24:38;100433.31;;;9.90;70.13
48874;BME280;66155;46.204;5.220;2023-02-04T11:29:38;100418.91;;;10.01;69.70
48874;BME280;66155;46.204;5.220;2023-02-04T11:34:48;100419.09;;;10.00;69.85
48874;BME280;66155;46.204;5.220;2023-02-04T11:39:50;100410.91;;;9.89;70.19
48874;BME280;66155;46.204;5.220;2023-02-04T11:44:57;100410.28;;;10.01;70.24
48874;BME280;66155;46.204;5.220;2023-02-04T11:50:01;100411.50;;;10.38;69.15
48874;BME280;66155;46.204;5.220;2023-02-04T11:55:02;100407.28;;;10.51;68.33
48874;BME280;66155;46.204;5.220;2023-02-04T12:00:02;100411.50;;;10.52;68.20
48874;BME280;66155;46.204;5.220;2023-02-04T12:05:39;100407.09;;;10.45;67.93
48874;BME280;66155;46.204;5.220;2023-02-04T12:10:50;100404.47;;;10.19;69.38
48874;BME280;66155;46.204;5.220;2023-02-04T12:21:02;100404.69;;;10.04;69.75
48874;BME280;66155;46.204;5.220;2023-02-04T12:26:03;100394.66;;;9.94;69.46
48874;BME280;66155;46.204;5.220;2023-02-04T12:31:03;100385.66;;;9.97;69.51
48874;BME280;66155;46.204;5.220;2023-02-04T12:36:04;100384.44;;;9.79;70.06
48874;BME280;66155;46.204;5.220;2023-02-04T12:41:05;100375.22;;;9.70;70.48
48874;BME280;66155;46.204;5.220;2023-02-04T12:46:05;100385.41;;;9.58;71.03
48874;BME280;66155;46.204;5.220;2023-02-04T12:51:06;100383.78;;;9.57;71.20
48874;BME280;66155;46.204;5.220;2023-02-04T12:56:07;100374.94;;;9.31;72.42
48874;BME280;66155;46.204;5.220;2023-02-04T13:01:07;100376.59;;;9.66;71.84
48874;BME280;66155;46.204;5.220;2023-02-04T13:06:07;100363.75;;;9.44;72.61
48874;BME280;66155;46.204;5.220;2023-02-04T13:11:08;100367.97;;;9.45;72.52
48874;BME280;66155;46.204;5.220;2023-02-04T13:16:08;100363.16;;;9.42;72.48
48874;BME280;66155;46.204;5.220;2023-02-04T13:21:08;100360.75;;;9.41;72.40
48874;BME280;66155;46.204;5.220;2023-02-04T13:26:09;100363.34;;;9.34;72.97
48874;BME280;66155;46.204;5.220;2023-02-04T13:31:10;100367.78;;;9.40;72.80
48874;BME280;66155;46.204;5.220;2023-02-04T13:36:10;100369.56;;;9.33;73.13
48874;BME280;66155;46.204;5.220;2023-02-04T13:41:11;100366.16;;;9.39;72.87
48874;BME280;66155;46.204;5.220;2023-02-04T13:46:11;100380.19;;;9.51;72.53
48874;BME280;66155;46.204;5.220;2023-02-04T13:51:12;100378.38;;;9.39;73.04
48874;BME280;66155;46.204;5.220;2023-02-04T13:56:12;100378.56;;;9.37;73.08
48874;BME280;66155;46.204;5.220;2023-02-04T14:01:13;100378.31;;;9.25;73.66
48874;BME280;66155;46.204;5.220;2023-02-04T14:06:14;100374.34;;;9.29;73.47
48874;BME280;66155;46.204;5.220;2023-02-04T14:11:14;100372.56;;;9.37;72.76
48874;BME280;66155;46.204;5.220;2023-02-04T14:16:14;100365.94;;;12.08;65.25
48874;BME280;66155;46.204;5.220;2023-02-04T14:21:15;100371.44;;;10.06;70.81
48874;BME280;66155;46.204;5.220;2023-02-04T14:26:15;100354.63;;;11.64;65.85
48874;BME280;66155;46.204;5.220;2023-02-04T14:31:16;100351.41;;;11.87;64.26
48874;BME280;66155;46.204;5.220;2023-02-04T14:36:16;100344.03;;;16.16;52.51
48874;BME280;66155;46.204;5.220;2023-02-04T14:41:16;100332.84;;;19.00;44.88
48874;BME280;66155;46.204;5.220;2023-02-04T14:46:20;100342.34;;;18.91;45.74
48874;BME280;66155;46.204;5.220;2023-02-04T14:51:20;100341.19;;;20.36;41.18
48874;BME280;66155;46.204;5.220;2023-02-04T14:56:20;100327.13;;;21.00;40.57
48874;BME280;66155;46.204;5.220;2023-02-04T15:01:21;100344.38;;;20.38;40.78
48874;BME280;66155;46.204;5.220;2023-02-04T15:06:21;100341.53;;;20.84;40.19
48874;BME280;66155;46.204;5.220;2023-02-04T15:11:22;100346.69;;;20.55;40.29
48874;BME280;66155;46.204;5.220;2023-02-04T15:16:22;100350.34;;;19.42;41.91
48874;BME280;66155;46.204;5.220;2023-02-04T15:21:22;100341.63;;;20.63;39.71
48874;BME280;66155;46.204;5.220;2023-02-04T15:26:23;100344.69;;;20.21;40.61
48874;BME280;66155;46.204;5.220;2023-02-04T15:31:24;100353.59;;;16.22;48.69
48874;BME280;66155;46.204;5.220;2023-02-04T15:36:25;100352.16;;;18.37;44.14
48874;BME280;66155;46.204;5.220;2023-02-04T15:41:26;100353.16;;;17.51;45.41
48874;BME280;66155;46.204;5.220;2023-02-04T15:46:26;100352.25;;;13.47;55.53
48874;BME280;66155;46.204;5.220;2023-02-04T15:51:27;100362.56;;;12.26;59.36
48874;BME280;66155;46.204;5.220;2023-02-04T15:56:27;100367.63;;;11.71;61.24
48874;BME280;66155;46.204;5.220;2023-02-04T16:01:27;100394.84;;;11.18;63.65
48874;BME280;66155;46.204;5.220;2023-02-04T16:06:28;100380.09;;;10.85;64.92
48874;BME280;66155;46.204;5.220;2023-02-04T16:11:29;100377.97;;;10.62;65.74
48874;BME280;66155;46.204;5.220;2023-02-04T16:16:29;100379.00;;;10.48;66.25
48874;BME280;66155;46.204;5.220;2023-02-04T16:21:30;100385.06;;;10.35;67.30
48874;BME280;66155;46.204;5.220;2023-02-04T16:26:30;100387.84;;;10.13;67.80
48874;BME280;66155;46.204;5.220;2023-02-04T16:31:31;100386.03;;;9.80;68.87
48874;BME280;66155;46.204;5.220;2023-02-04T16:36:31;100395.03;;;9.58;69.72
48874;BME280;66155;46.204;5.220;2023-02-04T16:41:32;100396.19;;;9.42;70.12
48874;BME280;66155;46.204;5.220;2023-02-04T16:46:32;100395.91;;;9.23;70.64
48874;BME280;66155;46.204;5.220;2023-02-04T16:51:33;100401.84;;;9.04;71.85
48874;BME280;66155;46.204;5.220;2023-02-04T16:56:33;100404.63;;;8.96;71.33
48874;BME280;66155;46.204;5.220;2023-02-04T17:01:34;100397.94;;;8.80;72.45
48874;BME280;66155;46.204;5.220;2023-02-04T17:06:34;100413.88;;;8.70;73.67
48874;BME280;66155;46.204;5.220;2023-02-04T17:11:35;100410.84;;;8.66;72.88
48874;BME280;66155;46.204;5.220;2023-02-04T17:16:36;100424.03;;;8.58;73.39
48874;BME280;66155;46.204;5.220;2023-02-04T17:21:36;100428.16;;;8.52;73.97
48874;BME280;66155;46.204;5.220;2023-02-04T17:26:38;100437.56;;;8.53;74.57
48874;BME280;66155;46.204;5.220;2023-02-04T17:31:39;100437.88;;;8.44;75.65
48874;BME280;66155;46.204;5.220;2023-02-04T17:36:42;100435.34;;;8.50;75.95
48874;BME280;66155;46.204;5.220;2023-02-04T17:41:42;100435.72;;;8.47;76.23
48874;BME280;66155;46.204;5.220;2023-02-04T17:46:42;100446.94;;;8.48;76.69
48874;BME280;66155;46.204;5.220;2023-02-04T17:51:43;100451.09;;;8.49;76.41
48874;BME280;66155;46.204;5.220;2023-02-04T17:56:43;100445.78;;;8.57;76.38
48874;BME280;66155;46.204;5.220;2023-02-04T18:01:43;100444.81;;;8.58;76.84
48874;BME280;66155;46.204;5.220;2023-02-04T18:06:44;100453.03;;;8.62;76.61
48874;BME280;66155;46.204;5.220;2023-02-04T18:11:46;100461.66;;;8.69;76.11
48874;BME280;66155;46.204;5.220;2023-02-04T18:16:46;100448.44;;;8.64;76.83
48874;BME280;66155;46.204;5.220;2023-02-04T18:21:47;100454.06;;;8.67;76.58
48874;BME280;66155;46.204;5.220;2023-02-04T18:26:51;100455.47;;;8.70;77.29
48874;BME280;66155;46.204;5.220;2023-02-04T18:31:54;100448.66;;;8.69;76.90
48874;BME280;66155;46.204;5.220;2023-02-04T18:37:31;100451.28;;;8.75;76.92
48874;BME280;66155;46.204;5.220;2023-02-04T19:51:48;100438.41;;;8.61;79.14
48874;BME280;66155;46.204;5.220;2023-02-04T19:56:54;100441.06;;;8.67;78.20
48874;BME280;66155;46.204;5.220;2023-02-04T20:07:39;100438.69;;;8.72;78.39
48874;BME280;66155;46.204;5.220;2023-02-04T20:12:39;100450.25;;;8.70;78.69
48874;BME280;66155;46.204;5.220;2023-02-04T20:18:31;100443.59;;;8.61;79.33
48874;BME280;66155;46.204;5.220;2023-02-04T20:43:49;100455.16;;;8.30;81.25
48874;BME280;66155;46.204;5.220;2023-02-04T20:48:52;100457.94;;;8.28;80.98
48874;BME280;66155;46.204;5.220;2023-02-04T20:53:54;100462.50;;;8.26;80.49
48874;BME280;66155;46.204;5.220;2023-02-04T20:59:42;100471.47;;;8.24;81.78
48874;BME280;66155;46.204;5.220;2023-02-04T21:04:59;100488.66;;;8.25;81.57
48874;BME280;66155;46.204;5.220;2023-02-04T21:27:47;100483.78;;;8.15;82.01
48874;BME280;66155;46.204;5.220;2023-02-04T21:32:58;100486.53;;;8.13;82.57
48874;BME280;66155;46.204;5.220;2023-02-04T21:38:23;100486.63;;;8.20;82.45
48874;BME280;66155;46.204;5.220;2023-02-04T21:43:39;100482.47;;;8.26;82.47
48874;BME280;66155;46.204;5.220;2023-02-04T21:48:46;100491.56;;;8.15;82.88
48874;BME280;66155;46.204;5.220;2023-02-04T21:53:50;100492.41;;;8.22;82.44
48874;BME280;66155;46.204;5.220;2023-02-04T21:58:58;100493.19;;;8.16;82.73
48874;BME280;66155;46.204;5.220;2023-02-04T22:04:32;100495.16;;;8.14;82.72
48874;BME280;66155;46.204;5.220;2023-02-04T22:09:35;100495.69;;;8.09;82.96
48874;BME280;66155;46.204;5.220;2023-02-04T22:14:58;100493.91;;;8.10;82.89
48874;BME280;66155;46.204;5.220;2023-02-04T22:20:08;100507.81;;;8.02;82.55
48874;BME280;66155;46.204;5.220;2023-02-04T22:25:20;100504.16;;;7.96;83.06
48874;BME280;66155;46.204;5.220;2023-02-04T22:30:39;100500.88;;;7.88;83.25
48874;BME280;66155;46.204;5.220;2023-02-04T22:41:55;100522.41;;;7.67;83.55
48874;BME280;66155;46.204;5.220;2023-02-04T22:47:08;100518.94;;;7.59;84.10
48874;BME280;66155;46.204;5.220;2023-02-04T22:53:16;100527.63;;;7.52;84.21
48874;BME280;66155;46.204;5.220;2023-02-04T22:58:34;100529.94;;;7.47;83.70
48874;BME280;66155;46.204;5.220;2023-02-04T23:09:55;100527.44;;;7.38;83.96
48874;BME280;66155;46.204;5.220;2023-02-04T23:15:24;100533.63;;;7.37;83.34
48874;BME280;66155;46.204;5.220;2023-02-04T23:20:48;100529.69;;;7.27;84.15
48874;BME280;66155;46.204;5.220;2023-02-04T23:25:54;100533.78;;;7.21;84.21
48874;BME280;66155;46.204;5.220;2023-02-04T23:31:03;100542.13;;;7.16;83.92
48874;BME280;66155;46.204;5.220;2023-02-04T23:36:13;100539.75;;;7.07;84.02
48874;BME280;66155;46.204;5.220;2023-02-04T23:41:21;100542.53;;;7.05;83.25
48874;BME280;66155;46.204;5.220;2023-02-04T23:46:47;100542.72;;;7.03;83.81
48874;BME280;66155;46.204;5.220;2023-02-04T23:52:20;100540.03;;;6.97;83.50
48874;BME280;66155;46.204;5.220;2023-02-04T23:57:23;100536.09;;;6.86;83.13
